Time;durP1;ratioP1;P1;durP2;ratioP2;P2;SDS_P1;SDS_P2;PMS_P1;PMS_P2;Temp;Humidity;BMP_temperature;BMP_pressure;BME280_temperature;BME280_humidity;BME280_pressure;Samples;Min_cycle;Max_cycle;Signal;HPM_P1;HPM_P2
2022/05/04 00:00:45;;;;;;;23.42;18.70;;;;;;;10.60;71.60;99030.08;4053456;85;21061;-85
2022/05/04 00:06:47;;;;;;;27.70;19.77;;;;;;;10.46;71.95;99027.17;4081865;86;21874;-85
2022/05/04 00:12:48;;;;;;;24.82;18.02;;;;;;;10.35;72.42;99028.99;4037667;87;21636;-85
2022/05/04 00:18:49;;;;;;;24.18;17.10;;;;;;;10.28;72.90;99036.53;4028046;87;21138;-84
2022/05/04 00:24:51;;;;;;;28.02;18.90;;;;;;;10.31;73.45;99047.30;4026175;87;21063;-85
2022/05/04 00:30:55;;;;;;;29.77;21.30;;;;;;;10.46;73.53;99049.07;4031572;87;21067;-85
2022/05/04 00:37:01;;;;;;;25.25;16.87;;;;;;;10.25;73.17;99035.11;4026344;87;21058;-83
2022/05/04 00:43:00;;;;;;;30.75;20.95;;;;;;;10.24;74.14;99039.78;4036791;87;21107;-85
2022/05/04 00:49:01;;;;;;;35.48;22.00;;;;;;;10.23;73.51;99053.83;4025282;87;21143;-85
2022/05/04 00:55:07;;;;;;;26.65;19.42;;;;;;;10.04;74.24;99063.53;4023411;87;21120;-85
2022/05/04 01:01:09;;;;;;;29.60;21.30;;;;;;;9.96;74.41;99055.78;4038162;86;21107;-86
2022/05/04 01:07:11;;;;;;;30.95;22.42;;;;;;;9.85;74.96;99058.16;4014492;87;21011;-86
2022/05/04 01:13:14;;;;;;;33.55;22.93;;;;;;;9.85;75.28;99058.94;4039689;87;21096;-85
2022/05/04 01:19:16;;;;;;;27.58;19.00;;;;;;;9.81;75.61;99060.84;4026158;87;21098;-85
2022/05/04 01:25:19;;;;;;;21.55;17.42;;;;;;;9.90;76.32;99065.45;4040545;87;22137;-86
2022/05/04 01:31:20;;;;;;;29.52;23.35;;;;;;;9.94;76.42;99066.88;4017439;87;21637;-85
2022/05/04 01:37:22;;;;;;;28.47;22.10;;;;;;;9.80;76.18;99073.51;4040668;87;21075;-85
2022/05/04 01:43:23;;;;;;;28.55;22.13;;;;;;;9.74;76.68;99066.19;4039266;87;21618;-85
2022/05/04 01:49:24;;;;;;;32.67;20.97;;;;;;;9.69;76.87;99066.52;4036116;87;21999;-84
2022/05/04 01:55:27;;;;;;;29.92;22.60;;;;;;;9.56;76.64;99071.97;3944550;88;21604;-85
2022/05/04 02:01:29;;;;;;;28.75;22.77;;;;;;;9.41;76.90;99076.39;3960288;87;21618;-85
2022/05/04 02:07:34;;;;;;;28.52;23.07;;;;;;;9.25;77.11;99081.22;4038803;86;21954;-86
2022/05/04 02:13:35;;;;;;;32.83;23.25;;;;;;;9.23;77.82;99069.86;4045348;86;21709;-85
2022/05/04 02:19:36;;;;;;;29.40;22.07;;;;;;;9.24;77.79;99073.36;4036914;86;21598;-86
2022/05/04 02:25:38;;;;;;;31.68;22.70;;;;;;;9.15;78.25;99064.62;4046306;86;21609;-85
2022/05/04 02:31:39;;;;;;;34.83;25.10;;;;;;;9.18;78.51;99076.98;4034207;86;21032;-85
2022/05/04 02:38:41;;;;;;;38.20;25.17;;;;;;;8.96;77.98;99094.13;3968430;87;21075;-85
2022/05/04 02:43:52;;;;;;;36.30;24.72;;;;;;;8.79;79.09;99112.88;3959960;87;21106;-85
2022/05/04 02:49:54;;;;;;;35.55;23.38;;;;;;;8.67;79.46;99108.95;3973907;87;21497;-85
2022/05/04 02:55:55;;;;;;;34.25;23.60;;;;;;;8.61;81.71;99111.75;3991535;87;21128;-85
2022/05/04 03:08:16;;;;;;;30.52;22.60;;;;;;;8.41;80.79;99143.67;4048758;86;21142;-86
2022/05/04 03:14:18;;;;;;;31.95;23.30;;;;;;;8.38;83.42;99136.20;4062696;86;21114;-86
2022/05/04 03:20:20;;;;;;;34.75;25.12;;;;;;;8.32;81.87;99136.27;4034258;86;21148;-86
2022/05/04 03:26:21;;;;;;;37.88;25.02;;;;;;;8.42;81.84;99127.53;4037062;87;22057;-85
2022/05/04 03:32:23;;;;;;;33.08;25.72;;;;;;;8.47;81.45;99124.50;4021761;87;21071;-85
2022/05/04 03:38:24;;;;;;;33.18;23.15;;;;;;;8.55;81.70;99111.83;4109199;85;21127;-86
2022/05/04 03:44:26;;;;;;;28.12;21.23;;;;;;;8.72;82.19;99101.25;4008976;85;71821;-85
2022/05/04 03:50:27;;;;;;;25.92;19.27;;;;;;;8.90;81.79;99104.33;4006971;87;21066;-87
2022/05/04 03:56:28;;;;;;;25.32;19.07;;;;;;;9.08;81.42;99109.56;4000260;87;21159;-86
2022/05/04 04:02:30;;;;;;;28.10;17.77;;;;;;;9.04;81.14;99118.25;3987441;86;21096;-86
2022/05/04 04:08:31;;;;;;;28.52;18.37;;;;;;;9.12;81.57;99139.08;4019351;86;21022;-85
2022/05/04 04:14:33;;;;;;;24.85;17.25;;;;;;;9.16;81.71;99139.95;3999407;88;21062;-86
2022/05/04 04:26:54;;;;;;;28.47;18.70;;;;;;;9.04;82.56;99152.38;3984411;87;21071;-86
2022/05/04 04:32:56;;;;;;;25.02;18.73;;;;;;;9.25;82.72;99159.06;3994510;87;21507;-87
2022/05/04 04:38:58;;;;;;;27.13;19.17;;;;;;;9.44;82.56;99162.33;4104501;85;21958;-86
2022/05/04 04:44:59;;;;;;;30.17;22.07;;;;;;;9.57;82.67;99177.98;4094795;85;21010;-86
2022/05/04 04:51:00;;;;;;;34.18;22.98;;;;;;;9.61;82.58;99192.48;4095953;85;21612;-86
2022/05/04 04:57:02;;;;;;;42.55;25.80;;;;;;;9.58;82.39;99199.48;4092957;85;21026;-86
2022/05/04 05:03:04;;;;;;;36.20;22.60;;;;;;;9.55;82.57;99207.81;4068213;85;21049;-87
2022/05/04 05:09:05;;;;;;;32.80;20.88;;;;;;;9.65;83.00;99202.92;4056076;85;21106;-88
2022/05/04 05:21:27;;;;;;;31.35;19.25;;;;;;;9.81;83.48;99186.60;4068218;86;21771;-87
2022/05/04 05:27:32;;;;;;;27.50;16.25;;;;;;;9.96;83.33;99182.94;4070047;85;21416;-86
2022/05/04 05:33:33;;;;;;;21.35;15.03;;;;;;;10.23;82.95;99179.11;4069920;85;21020;-87
2022/05/04 05:39:34;;;;;;;17.05;12.90;;;;;;;10.61;82.43;99172.63;4072782;86;21131;-86
2022/05/04 05:45:36;;;;;;;18.05;12.20;;;;;;;11.06;81.99;99187.48;4073291;86;21100;-87
2022/05/04 05:51:37;;;;;;;15.03;12.03;;;;;;;11.37;81.19;99185.69;4053747;86;21150;-88
2022/05/04 05:57:39;;;;;;;13.50;10.98;;;;;;;11.98;80.95;99191.41;4052378;86;21068;-87
2022/05/04 06:03:41;;;;;;;13.60;10.38;;;;;;;12.42;79.58;99189.97;4042406;86;21191;-87
2022/05/04 06:09:42;;;;;;;14.50;9.85;;;;;;;12.68;79.10;99187.59;4051933;86;21120;-87
2022/05/04 06:15:44;;;;;;;18.32;10.48;;;;;;;12.97;78.59;99188.73;4066311;86;21107;-87
2022/05/04 06:21:45;;;;;;;17.75;11.30;;;;;;;13.10;77.56;99193.33;4070057;86;21059;-87
2022/05/04 06:27:46;;;;;;;17.50;10.43;;;;;;;13.28;77.29;99194.97;4074636;86;21579;-87
2022/05/04 06:40:08;;;;;;;13.72;9.98;;;;;;;13.85;76.13;99198.06;4073981;86;21048;-86
2022/05/04 06:46:11;;;;;;;16.75;10.58;;;;;;;14.08;75.29;99197.09;4097029;86;21538;-86
2022/05/04 06:52:13;;;;;;;15.65;10.13;;;;;;;14.29;73.67;99205.97;4045885;86;21013;-87
2022/05/04 06:58:14;;;;;;;11.70;8.38;;;;;;;14.55;74.20;99207.53;4057155;86;21122;-88
2022/05/04 07:04:16;;;;;;;14.53;8.85;;;;;;;14.76;73.58;99195.87;4015374;87;21072;-88
2022/05/04 07:10:18;;;;;;;11.43;8.30;;;;;;;15.05;72.73;99199.33;3983595;88;21132;-88
2022/05/04 07:16:19;;;;;;;11.15;8.00;;;;;;;15.39;71.76;99201.77;4004230;87;21045;-87
2022/05/04 07:22:22;;;;;;;10.32;7.00;;;;;;;15.81;69.31;99197.38;3965674;87;21133;-88
2022/05/04 07:28:26;;;;;;;10.20;7.60;;;;;;;16.17;68.86;99201.45;4010159;86;21739;-88
2022/05/04 07:35:16;;;;;;;;;;;;;;;;;;;;;
2022/05/04 07:47:47;;;;;;;10.10;6.58;;;;;;;16.82;58.17;99202.64;3938665;89;21089;-88
2022/05/04 07:53:48;;;;;;;9.43;5.95;;;;;;;17.50;59.25;99198.49;3940812;88;21162;-87
2022/05/04 08:06:12;;;;;;;10.10;5.28;;;;;;;18.64;56.48;99207.59;3970604;87;21044;-87
2022/05/04 08:12:13;;;;;;;7.10;4.95;;;;;;;18.91;55.73;99208.09;4010044;87;21053;-86
2022/05/04 08:18:16;;;;;;;6.62;5.28;;;;;;;19.15;56.36;99209.62;3968371;88;21004;-87
2022/05/04 08:24:18;;;;;;;6.05;4.53;;;;;;;19.23;52.84;99211.80;4004197;87;21033;-85
2022/05/04 08:30:20;;;;;;;6.25;5.05;;;;;;;19.30;54.09;99210.91;3972669;88;21482;-87
2022/05/04 08:36:21;;;;;;;6.03;4.85;;;;;;;19.36;51.77;99199.48;4004694;87;22364;-86
2022/05/04 08:42:24;;;;;;;6.83;5.00;;;;;;;19.45;50.12;99203.25;3947863;89;21938;-87
2022/05/04 08:48:25;;;;;;;9.60;5.30;;;;;;;19.53;50.33;99201.89;4037195;87;20996;-86
2022/05/04 08:54:27;;;;;;;7.10;5.00;;;;;;;19.76;50.62;99201.77;4006591;87;21545;-87
2022/05/04 09:00:28;;;;;;;9.85;4.78;;;;;;;19.93;49.66;99208.94;4008464;87;21787;-87
2022/05/04 09:06:33;;;;;;;6.00;4.90;;;;;;;20.08;50.04;99211.55;3938758;88;21101;-86
2022/05/04 09:12:35;;;;;;;9.28;5.25;;;;;;;20.15;48.80;99205.08;3986299;87;21109;-87
2022/05/04 09:18:36;;;;;;;9.10;5.25;;;;;;;20.82;49.39;99197.19;3984371;87;21089;-87
2022/05/04 09:24:42;;;;;;;5.72;5.10;;;;;;;21.54;48.81;99196.95;3950509;88;21055;-88
2022/05/04 09:30:48;;;;;;;8.28;5.00;;;;;;;21.96;46.28;99199.66;3981936;87;21029;-88
2022/05/04 09:49:52;;;;;;;9.33;5.03;;;;;;;23.04;42.42;99190.42;3957485;88;21108;-88
2022/05/04 09:56:01;;;;;;;8.75;5.25;;;;;;;22.82;42.85;99194.41;3981846;87;22011;-86
2022/05/04 10:09:28;;;;;;;7.45;4.78;;;;;;;22.89;41.06;99183.00;3957707;87;21053;-87
2022/05/04 10:15:34;;;;;;;6.97;5.35;;;;;;;24.07;39.47;99179.70;3853299;90;22094;-85
2022/05/04 10:21:38;;;;;;;5.45;4.75;;;;;;;23.90;39.27;99174.18;4016325;87;21052;-86
2022/05/04 10:27:53;;;;;;;6.55;4.92;;;;;;;23.62;35.63;99173.11;3957212;88;21085;-87
2022/05/04 10:34:11;;;;;;;6.20;4.43;;;;;;;23.78;37.35;99175.07;3985333;87;21085;-87
2022/05/04 10:40:43;;;;;;;9.45;5.05;;;;;;;24.04;37.68;99172.24;3891577;89;22149;-87
2022/05/04 10:46:54;;;;;;;6.12;4.50;;;;;;;24.17;37.03;99166.53;3991770;87;22118;-86
2022/05/04 10:52:55;;;;;;;7.87;4.70;;;;;;;24.70;36.83;99164.34;3979290;87;21109;-88
2022/05/04 10:59:02;;;;;;;6.10;4.95;;;;;;;24.46;36.54;99148.09;3925854;88;21097;-87
2022/05/04 11:05:13;;;;;;;6.30;4.70;;;;;;;23.87;35.79;99150.55;3953568;88;21088;-87
2022/05/04 11:11:15;;;;;;;7.62;5.30;;;;;;;23.71;36.37;99145.98;3985716;87;21919;-87
2022/05/04 11:17:17;;;;;;;7.33;4.87;;;;;;;23.45;35.20;99149.43;3950995;88;21132;-87
2022/05/04 11:23:25;;;;;;;6.55;4.70;;;;;;;22.45;36.61;99151.43;3966494;88;21590;-87
2022/05/04 11:29:30;;;;;;;6.42;5.10;;;;;;;21.42;37.10;99128.69;3987144;87;21085;-87
2022/05/04 11:35:31;;;;;;;7.42;5.08;;;;;;;21.42;37.10;99128.69;3959421;88;21055;-88
2022/05/04 11:41:33;;;;;;;5.87;4.42;;;;;;;21.10;36.93;99149.72;3986998;87;21557;-87
2022/05/04 11:47:36;;;;;;;10.20;6.28;;;;;;;20.84;37.45;99147.46;3937309;88;21132;-87
2022/05/04 11:53:39;;;;;;;9.40;5.25;;;;;;;21.51;37.60;99143.52;3964968;88;21106;-87
2022/05/04 11:59:40;;;;;;;5.90;5.03;;;;;;;22.00;37.05;99130.66;3987473;87;21593;-86
2022/05/04 12:05:43;;;;;;;7.17;5.15;;;;;;;21.79;36.97;99134.91;3964360;88;21046;-87
2022/05/04 12:11:45;;;;;;;6.78;4.55;;;;;;;21.63;36.91;99131.59;4009498;86;21074;-86
2022/05/04 12:17:46;;;;;;;21.37;5.17;;;;;;;21.52;37.08;99129.75;3987560;87;21178;-86
2022/05/04 12:23:53;;;;;;;6.75;5.03;;;;;;;21.23;36.87;99128.27;4014900;87;21082;-87
2022/05/04 12:36:23;;;;;;;11.10;4.72;;;;;;;20.66;37.13;99123.50;4071767;85;21069;-86
2022/05/04 12:42:25;;;;;;;10.03;5.30;;;;;;;20.59;37.24;99119.55;4065606;86;21112;-86
2022/05/04 12:48:27;;;;;;;7.25;4.35;;;;;;;20.41;37.57;99111.48;4079354;86;21107;-86
2022/05/04 12:54:28;;;;;;;7.72;4.65;;;;;;;20.18;37.56;99107.72;4070245;85;21064;-86
2022/05/04 13:00:29;;;;;;;4.83;4.00;;;;;;;20.01;37.50;99113.69;4059661;86;21016;-86
2022/05/04 13:06:31;;;;;;;7.62;4.20;;;;;;;19.95;38.10;99112.66;4089929;85;21096;-86
2022/05/04 13:12:33;;;;;;;9.78;4.50;;;;;;;19.97;38.22;99103.25;4110336;85;21077;-85
2022/05/04 13:18:34;;;;;;;7.50;5.03;;;;;;;20.03;38.23;99107.86;4102703;85;21042;-86
2022/05/04 13:24:36;;;;;;;6.37;4.10;;;;;;;19.96;38.23;99107.26;4084514;85;21039;-86
2022/05/04 13:30:37;;;;;;;5.92;4.15;;;;;;;19.96;38.31;99103.88;4093712;85;21699;-85
2022/05/04 13:36:38;;;;;;;6.05;3.95;;;;;;;19.93;38.40;99098.41;4098781;85;20997;-85
2022/05/04 13:42:45;;;;;;;6.17;4.53;;;;;;;19.89;38.33;99094.92;4091630;85;22019;-86
2022/05/04 13:48:46;;;;;;;5.35;4.47;;;;;;;19.85;38.37;99092.84;4106828;85;21085;-86
2022/05/04 13:54:51;;;;;;;6.03;4.30;;;;;;;19.81;38.10;99093.55;4103439;85;21557;-86
2022/05/04 14:00:57;;;;;;;5.05;4.12;;;;;;;19.81;38.28;99087.37;4101516;85;21428;-86
2022/05/04 14:06:58;;;;;;;6.70;4.50;;;;;;;19.85;38.01;99094.23;4094868;85;21057;-86
2022/05/04 14:12:59;;;;;;;5.17;4.67;;;;;;;19.85;37.89;99097.80;4100958;85;21529;-86
2022/05/04 14:19:00;;;;;;;6.67;4.95;;;;;;;19.74;37.50;99098.67;4078427;85;21572;-85
2022/05/04 14:25:02;;;;;;;8.78;4.22;;;;;;;19.66;37.61;99096.48;4102862;85;21612;-86
2022/05/04 14:31:04;;;;;;;5.25;4.00;;;;;;;19.59;37.82;99097.42;4096558;85;21101;-86
2022/05/04 14:37:05;;;;;;;4.95;3.95;;;;;;;19.47;37.81;99090.38;4094168;85;21083;-86
2022/05/04 14:43:07;;;;;;;6.42;3.72;;;;;;;19.46;37.89;99092.40;4094735;85;21041;-86
2022/05/04 14:49:08;;;;;;;4.62;3.80;;;;;;;19.48;38.04;99098.28;4093866;85;22516;-86
2022/05/04 14:55:12;;;;;;;6.62;3.50;;;;;;;19.48;38.35;99095.50;4091750;85;20994;-86
2022/05/04 15:01:16;;;;;;;4.08;3.42;;;;;;;19.50;38.21;99095.07;4101097;85;21012;-86
2022/05/04 15:07:18;;;;;;;7.87;3.60;;;;;;;19.51;38.50;99087.70;4102451;85;21045;-86
2022/05/04 15:13:20;;;;;;;8.13;3.42;;;;;;;19.46;38.45;99084.06;4107571;85;21082;-86
2022/05/04 15:19:29;;;;;;;5.58;3.65;;;;;;;19.38;38.72;99082.66;4115404;84;21132;-85
2022/05/04 15:25:29;;;;;;;9.40;4.90;;;;;;;19.33;38.57;99087.33;4105158;85;21067;-86
2022/05/04 15:31:31;;;;;;;5.90;4.15;;;;;;;19.33;38.56;99086.55;4117829;84;21140;-85
2022/05/04 15:37:33;;;;;;;9.00;4.10;;;;;;;19.35;38.80;99091.06;4099201;85;21064;-86
2022/05/04 15:43:35;;;;;;;5.42;3.80;;;;;;;19.34;38.77;99086.73;4104038;84;21983;-86
2022/05/04 15:49:36;;;;;;;8.38;3.45;;;;;;;19.33;38.61;99084.56;4114366;84;21040;-86
2022/05/04 15:55:38;;;;;;;6.42;3.40;;;;;;;19.37;38.76;99083.09;4116374;84;22054;-86
2022/05/04 16:01:39;;;;;;;5.30;3.37;;;;;;;19.39;38.36;99087.59;4110896;85;21041;-86
2022/05/04 16:07:43;;;;;;;6.58;3.42;;;;;;;19.27;38.60;99089.03;4068166;85;21080;-86
2022/05/04 16:13:44;;;;;;;6.65;3.52;;;;;;;19.21;38.56;99089.37;4047325;86;21652;-86
2022/05/04 16:26:05;;;;;;;6.45;3.67;;;;;;;19.15;38.52;99090.30;4069210;86;21023;-86
2022/05/04 16:32:07;;;;;;;8.43;3.95;;;;;;;19.11;38.62;99084.03;4060866;86;21064;-86
2022/05/04 16:38:09;;;;;;;5.08;3.27;;;;;;;18.96;38.58;99089.12;4047170;86;21104;-85
2022/05/04 16:44:12;;;;;;;6.70;3.30;;;;;;;18.80;38.56;99079.94;4083112;86;21035;-86
2022/05/04 16:57:10;;;;;;;5.58;3.25;;;;;;;18.53;38.63;99081.47;4057381;86;22463;-85
2022/05/04 17:03:11;;;;;;;4.20;2.70;;;;;;;18.34;38.74;99081.59;4073279;84;21084;-85
2022/05/04 17:09:48;;;;;;;5.37;3.30;;;;;;;18.14;38.91;99082.17;4108634;84;21704;-86
2022/05/04 17:15:52;;;;;;;7.72;3.67;;;;;;;17.95;39.13;99085.67;4081895;85;21002;-86
2022/05/04 17:21:56;;;;;;;8.65;3.67;;;;;;;17.76;39.45;99089.77;4107655;84;21548;-86
2022/05/04 17:27:58;;;;;;;7.87;3.65;;;;;;;17.60;39.71;99087.65;4121287;84;21004;-85
2022/05/04 17:40:27;;;;;;;10.93;4.80;;;;;;;17.29;40.26;99090.23;4107491;85;21508;-86
2022/05/04 17:46:29;;;;;;;11.10;5.78;;;;;;;17.01;40.83;99099.71;4122626;84;22387;-86
2022/05/04 17:52:31;;;;;;;10.60;6.05;;;;;;;16.71;41.41;99098.30;4118434;85;21016;-86
2022/05/04 17:58:32;;;;;;;9.68;5.40;;;;;;;16.37;42.18;99112.67;4112916;85;21016;-86
2022/05/04 18:04:34;;;;;;;15.28;8.33;;;;;;;16.10;42.72;99122.03;4005983;85;9999917;-85
2022/05/04 18:10:36;;;;;;;21.25;8.50;;;;;;;15.79;43.28;99123.05;4102586;85;21155;-85
2022/05/04 18:16:37;;;;;;;14.95;6.70;;;;;;;15.39;43.94;99132.81;3988701;87;21204;-85
2022/05/04 18:22:38;;;;;;;18.48;9.23;;;;;;;15.00;44.81;99137.71;3979402;87;21180;-86
2022/05/04 18:28:39;;;;;;;21.42;11.15;;;;;;;14.67;45.67;99138.22;4010373;86;22462;-86
2022/05/04 18:34:40;;;;;;;22.73;13.65;;;;;;;14.37;46.45;99149.70;3946726;88;21167;-86
2022/05/04 18:40:42;;;;;;;25.05;15.20;;;;;;;14.11;47.09;99148.70;3980992;86;21100;-86
2022/05/04 18:46:45;;;;;;;28.20;12.58;;;;;;;13.83;47.61;99159.13;3950043;89;21098;-85
2022/05/04 18:52:47;;;;;;;22.20;13.93;;;;;;;13.54;48.71;99158.91;3988498;86;21001;-85
2022/05/04 18:58:49;;;;;;;27.48;16.70;;;;;;;13.28;49.96;99162.58;3942605;89;21093;-85
2022/05/04 19:04:50;;;;;;;26.40;16.57;;;;;;;13.03;50.91;99175.45;3930830;89;21123;-85
2022/05/04 19:10:52;;;;;;;33.88;18.57;;;;;;;12.81;51.13;99176.49;4008714;86;21033;-85
2022/05/04 19:16:53;;;;;;;30.65;17.27;;;;;;;12.57;51.83;99186.94;4011229;87;21043;-85
2022/05/04 19:22:55;;;;;;;32.23;18.35;;;;;;;12.38;52.33;99194.09;4009804;87;21033;-85
2022/05/04 19:28:56;;;;;;;23.07;16.05;;;;;;;12.29;52.36;99194.98;4011172;86;21099;-84
2022/05/04 19:34:57;;;;;;;23.22;15.50;;;;;;;12.10;53.28;99199.38;4004944;87;21521;-84
2022/05/04 19:40:59;;;;;;;20.97;14.58;;;;;;;11.95;53.52;99196.28;4008242;87;21520;-85
2022/05/04 19:47:00;;;;;;;23.25;14.63;;;;;;;11.82;54.95;99194.21;4009464;87;21041;-85
2022/05/04 19:53:01;;;;;;;19.27;14.25;;;;;;;11.73;56.13;99202.73;4007057;87;21060;-85
2022/05/04 19:59:04;;;;;;;29.42;16.07;;;;;;;11.70;56.26;99193.89;4004305;87;21073;-85
2022/05/04 20:05:05;;;;;;;31.68;19.45;;;;;;;11.67;56.50;99199.34;4013372;86;21108;-86
2022/05/04 20:11:07;;;;;;;37.13;21.27;;;;;;;11.68;56.40;99200.33;4121021;84;21044;-86
2022/05/04 20:17:08;;;;;;;26.15;16.32;;;;;;;11.74;56.92;99193.36;4115662;84;21029;-85
2022/05/04 20:23:14;;;;;;;39.45;23.18;;;;;;;11.85;56.41;99197.56;4102130;85;21593;-85
2022/05/04 20:29:16;;;;;;;35.63;18.77;;;;;;;11.91;56.44;99202.91;4109367;85;21018;-85
2022/05/04 20:35:17;;;;;;;45.23;23.40;;;;;;;11.99;56.24;99211.41;4117418;84;21001;-85
2022/05/04 20:41:19;;;;;;;47.35;24.45;;;;;;;12.00;56.04;99215.14;4114365;84;21020;-84
2022/05/04 20:47:20;;;;;;;32.38;17.42;;;;;;;12.06;56.04;99212.83;4118729;85;21061;-85
2022/05/04 20:53:21;;;;;;;26.40;15.13;;;;;;;12.01;56.11;99214.58;4111979;85;21092;-85
2022/05/04 20:59:24;;;;;;;24.45;14.13;;;;;;;11.90;56.21;99217.20;4100861;85;21084;-85
2022/05/04 21:05:25;;;;;;;22.30;13.22;;;;;;;11.77;56.37;99224.14;4109240;85;21080;-85
2022/05/04 21:11:27;;;;;;;23.40;12.07;;;;;;;11.65;56.47;99229.88;4109770;84;21021;-85
2022/05/04 21:17:28;;;;;;;20.00;12.03;;;;;;;11.55;56.64;99233.86;4108379;85;21076;-85
2022/05/04 21:23:30;;;;;;;22.10;12.45;;;;;;;11.43;56.93;99228.64;4111121;85;21617;-85
2022/05/04 21:29:31;;;;;;;26.62;13.38;;;;;;;11.35;57.19;99235.20;4114494;84;21036;-85
2022/05/04 21:35:33;;;;;;;25.43;13.60;;;;;;;11.25;57.45;99239.96;4122068;84;21076;-84
2022/05/04 21:41:34;;;;;;;26.00;12.50;;;;;;;11.16;57.68;99244.38;4120287;84;21060;-85
2022/05/04 21:47:35;;;;;;;19.15;11.68;;;;;;;11.07;57.87;99244.64;4112582;85;21065;-85
2022/05/04 21:53:36;;;;;;;19.67;11.12;;;;;;;10.99;57.96;99244.94;4108247;85;21711;-85
2022/05/04 21:59:37;;;;;;;17.15;11.20;;;;;;;10.89;58.24;99244.20;4123275;84;21608;-85
2022/05/04 22:05:39;;;;;;;18.35;10.65;;;;;;;10.75;58.36;99247.54;4118826;85;21044;-86
2022/05/04 22:18:00;;;;;;;15.50;8.85;;;;;;;10.53;58.78;99257.96;4121500;84;22011;-85
2022/05/04 22:24:02;;;;;;;16.35;10.05;;;;;;;10.43;59.42;99249.00;4113381;85;21140;-85
2022/05/04 22:30:09;;;;;;;19.27;10.10;;;;;;;10.37;59.69;99252.41;4113252;85;21100;-85
2022/05/04 22:36:12;;;;;;;16.02;10.20;;;;;;;10.26;59.97;99259.66;4109904;85;21145;-85
2022/05/04 22:42:14;;;;;;;19.67;11.08;;;;;;;10.17;60.22;99264.02;4114534;84;21045;-84
2022/05/04 22:48:15;;;;;;;20.05;11.83;;;;;;;10.07;60.23;99246.84;4111899;84;21120;-84
2022/05/04 22:54:16;;;;;;;18.90;11.60;;;;;;;10.02;60.48;99253.17;4113205;84;21580;-85
2022/05/04 23:00:18;;;;;;;21.97;11.57;;;;;;;9.96;60.98;99254.64;4106870;85;21580;-84
2022/05/04 23:06:19;;;;;;;23.07;12.20;;;;;;;9.83;61.15;99249.13;4119924;84;21111;-84
2022/05/04 23:12:21;;;;;;;18.02;11.68;;;;;;;9.69;61.66;99252.40;4092481;85;21093;-85
2022/05/04 23:18:23;;;;;;;18.60;12.20;;;;;;;9.61;61.87;99252.62;4093488;85;21121;-84
2022/05/04 23:24:25;;;;;;;20.77;11.70;;;;;;;9.53;61.99;99248.39;4095081;85;21087;-84
2022/05/04 23:30:26;;;;;;;14.73;9.60;;;;;;;9.45;62.46;99245.87;4097029;85;21009;-85
2022/05/04 23:42:49;;;;;;;20.30;11.10;;;;;;;9.57;63.64;99262.70;4085723;85;21152;-85
2022/05/04 23:48:50;;;;;;;13.08;9.55;;;;;;;9.35;64.46;99258.17;4100015;85;21085;-85
2022/05/04 23:54:52;;;;;;;18.35;11.40;;;;;;;9.31;65.04;99264.16;4095770;84;21552;-85
